sensor_id;sensor_type;location;lat;lon;timestamp;pressure;altitude;pressure_sealevel;temperature;humidity
58757;BME280;44527;47.460;19.016;2023-04-04T00:01:36;100523.62;;;3.42;45.03
58757;BME280;44527;47.460;19.016;2023-04-04T00:04:38;100523.78;;;3.38;44.82
58757;BME280;44527;47.460;19.016;2023-04-04T00:07:41;100522.47;;;3.51;44.85
58757;BME280;44527;47.460;19.016;2023-04-04T00:10:43;100528.28;;;3.58;44.99
58757;BME280;44527;47.460;19.016;2023-04-04T00:13:45;100531.69;;;3.60;44.90
58757;BME280;44527;47.460;19.016;2023-04-04T00:16:48;100530.41;;;3.47;44.31
58757;BME280;44527;47.460;19.016;2023-04-04T00:19:50;100532.00;;;3.51;44.73
58757;BME280;44527;47.460;19.016;2023-04-04T00:22:52;100531.34;;;3.44;45.60
58757;BME280;44527;47.460;19.016;2023-04-04T00:25:54;100533.22;;;3.40;47.70
58757;BME280;44527;47.460;19.016;2023-04-04T00:28:57;100543.06;;;3.31;45.54
58757;BME280;44527;47.460;19.016;2023-04-04T00:31:59;100544.53;;;3.38;46.62
58757;BME280;44527;47.460;19.016;2023-04-04T00:35:02;100546.41;;;3.34;45.48
58757;BME280;44527;47.460;19.016;2023-04-04T00:38:04;100546.53;;;3.30;46.04
58757;BME280;44527;47.460;19.016;2023-04-04T00:41:06;100541.97;;;3.36;46.20
58757;BME280;44527;47.460;19.016;2023-04-04T00:44:08;100545.94;;;3.21;45.89
58757;BME280;44527;47.460;19.016;2023-04-04T00:47:13;100544.28;;;3.45;46.33
58757;BME280;44527;47.460;19.016;2023-04-04T00:50:16;100548.06;;;3.35;46.30
58757;BME280;44527;47.460;19.016;2023-04-04T00:53:19;100537.00;;;3.30;46.00
58757;BME280;44527;47.460;19.016;2023-04-04T00:56:21;100533.47;;;3.06;45.29
58757;BME280;44527;47.460;19.016;2023-04-04T00:59:24;100532.78;;;2.99;47.72
58757;BME280;44527;47.460;19.016;2023-04-04T01:02:28;100520.31;;;3.12;45.28
58757;BME280;44527;47.460;19.016;2023-04-04T01:05:30;100518.19;;;3.23;44.90
58757;BME280;44527;47.460;19.016;2023-04-04T01:08:33;100514.56;;;3.29;44.47
58757;BME280;44527;47.460;19.016;2023-04-04T01:11:37;100502.53;;;3.27;44.55
58757;BME280;44527;47.460;19.016;2023-04-04T01:14:39;100498.56;;;3.16;44.73
58757;BME280;44527;47.460;19.016;2023-04-04T01:17:43;100490.12;;;3.10;43.82
58757;BME280;44527;47.460;19.016;2023-04-04T01:20:49;100485.63;;;3.15;43.93
58757;BME280;44527;47.460;19.016;2023-04-04T01:26:56;100486.94;;;3.02;44.63
58757;BME280;44527;47.460;19.016;2023-04-04T01:29:59;100473.16;;;2.99;44.16
58757;BME280;44527;47.460;19.016;2023-04-04T01:33:08;100468.88;;;2.98;44.98
58757;BME280;44527;47.460;19.016;2023-04-04T01:42:23;100448.44;;;2.89;44.35
58757;BME280;44527;47.460;19.016;2023-04-04T01:45:27;100445.31;;;2.80;45.80
58757;BME280;44527;47.460;19.016;2023-04-04T01:48:31;100444.66;;;2.73;45.42
58757;BME280;44527;47.460;19.016;2023-04-04T01:51:34;100429.78;;;2.78;46.33
58757;BME280;44527;47.460;19.016;2023-04-04T01:54:36;100436.28;;;2.65;46.82
58757;BME280;44527;47.460;19.016;2023-04-04T01:57:38;100420.63;;;2.68;46.68
58757;BME280;44527;47.460;19.016;2023-04-04T02:00:41;100422.56;;;2.61;47.20
58757;BME280;44527;47.460;19.016;2023-04-04T02:03:44;100424.41;;;2.58;46.71
58757;BME280;44527;47.460;19.016;2023-04-04T02:06:46;100409.75;;;2.57;46.38
58757;BME280;44527;47.460;19.016;2023-04-04T02:09:49;100411.06;;;2.70;47.85
58757;BME280;44527;47.460;19.016;2023-04-04T02:12:54;100403.59;;;2.61;47.43
58757;BME280;44527;47.460;19.016;2023-04-04T02:15:56;100402.16;;;2.50;47.01
58757;BME280;44527;47.460;19.016;2023-04-04T02:18:59;100401.00;;;2.61;47.77
58757;BME280;44527;47.460;19.016;2023-04-04T02:22:01;100401.31;;;2.50;47.09
58757;BME280;44527;47.460;19.016;2023-04-04T02:25:04;100405.47;;;2.56;47.53
58757;BME280;44527;47.460;19.016;2023-04-04T02:28:06;100395.41;;;2.46;47.87
58757;BME280;44527;47.460;19.016;2023-04-04T02:31:09;100381.72;;;2.43;47.20
58757;BME280;44527;47.460;19.016;2023-04-04T02:34:11;100375.38;;;2.51;47.74
58757;BME280;44527;47.460;19.016;2023-04-04T02:37:13;100384.75;;;2.56;46.90
58757;BME280;44527;47.460;19.016;2023-04-04T02:40:16;100379.31;;;2.63;46.38
58757;BME280;44527;47.460;19.016;2023-04-04T02:43:19;100380.22;;;2.62;47.04
58757;BME280;44527;47.460;19.016;2023-04-04T02:46:21;100390.78;;;2.56;46.92
58757;BME280;44527;47.460;19.016;2023-04-04T02:49:25;100388.88;;;2.61;48.11
58757;BME280;44527;47.460;19.016;2023-04-04T02:52:29;100390.47;;;2.65;47.63
58757;BME280;44527;47.460;19.016;2023-04-04T02:55:34;100394.38;;;2.52;48.35
58757;BME280;44527;47.460;19.016;2023-04-04T02:58:37;100402.59;;;2.65;48.06
58757;BME280;44527;47.460;19.016;2023-04-04T03:01:40;100393.59;;;2.75;47.52
58757;BME280;44527;47.460;19.016;2023-04-04T03:04:43;100402.25;;;2.47;47.52
58757;BME280;44527;47.460;19.016;2023-04-04T03:07:45;100399.37;;;2.57;48.48
58757;BME280;44527;47.460;19.016;2023-04-04T03:10:47;100403.69;;;2.58;48.16
58757;BME280;44527;47.460;19.016;2023-04-04T03:13:50;100410.66;;;2.56;49.23
58757;BME280;44527;47.460;19.016;2023-04-04T03:16:55;100416.84;;;2.51;48.06
58757;BME280;44527;47.460;19.016;2023-04-04T03:19:57;100420.22;;;2.53;48.55
58757;BME280;44527;47.460;19.016;2023-04-04T03:22:59;100412.09;;;2.64;48.41
58757;BME280;44527;47.460;19.016;2023-04-04T03:26:02;100408.16;;;2.52;49.09
58757;BME280;44527;47.460;19.016;2023-04-04T03:29:04;100406.81;;;2.67;48.51
58757;BME280;44527;47.460;19.016;2023-04-04T03:32:07;100411.94;;;2.69;48.17
58757;BME280;44527;47.460;19.016;2023-04-04T03:35:09;100405.78;;;2.73;48.65
58757;BME280;44527;47.460;19.016;2023-04-04T03:38:11;100421.94;;;2.55;48.69
58757;BME280;44527;47.460;19.016;2023-04-04T03:41:13;100425.09;;;2.63;48.09
58757;BME280;44527;47.460;19.016;2023-04-04T03:44:16;100426.22;;;2.54;47.64
58757;BME280;44527;47.460;19.016;2023-04-04T03:47:18;100419.91;;;2.63;47.26
58757;BME280;44527;47.460;19.016;2023-04-04T03:50:21;100428.50;;;2.65;48.47
58757;BME280;44527;47.460;19.016;2023-04-04T03:53:24;100428.41;;;2.68;48.65
58757;BME280;44527;47.460;19.016;2023-04-04T03:56:30;100421.16;;;2.78;47.57
58757;BME280;44527;47.460;19.016;2023-04-04T03:59:34;100426.66;;;2.68;48.50
58757;BME280;44527;47.460;19.016;2023-04-04T04:02:37;100413.66;;;2.70;48.74
58757;BME280;44527;47.460;19.016;2023-04-04T04:05:40;100418.75;;;2.73;48.29
58757;BME280;44527;47.460;19.016;2023-04-04T04:08:43;100419.13;;;2.61;48.25
58757;BME280;44527;47.460;19.016;2023-04-04T04:11:45;100415.44;;;2.68;48.79
58757;BME280;44527;47.460;19.016;2023-04-04T04:14:49;100412.66;;;2.74;49.19
58757;BME280;44527;47.460;19.016;2023-04-04T04:17:51;100397.63;;;2.57;47.80
58757;BME280;44527;47.460;19.016;2023-04-04T04:20:57;100409.66;;;2.60;48.08
58757;BME280;44527;47.460;19.016;2023-04-04T04:24:00;100404.47;;;2.60;48.29
58757;BME280;44527;47.460;19.016;2023-04-04T04:27:03;100404.47;;;2.60;48.48
58757;BME280;44527;47.460;19.016;2023-04-04T04:30:05;100399.09;;;2.66;48.02
58757;BME280;44527;47.460;19.016;2023-04-04T04:33:10;100397.69;;;2.56;47.81
58757;BME280;44527;47.460;19.016;2023-04-04T04:36:14;100402.16;;;2.50;47.92
58757;BME280;44527;47.460;19.016;2023-04-04T04:39:17;100392.31;;;2.62;47.65
58757;BME280;44527;47.460;19.016;2023-04-04T04:42:23;100398.97;;;2.69;47.31
58757;BME280;44527;47.460;19.016;2023-04-04T04:45:25;100402.38;;;2.71;47.28
58757;BME280;44527;47.460;19.016;2023-04-04T04:48:29;100403.63;;;2.86;47.00
58757;BME280;44527;47.460;19.016;2023-04-04T04:51:32;100404.03;;;3.00;46.16
58757;BME280;44527;47.460;19.016;2023-04-04T04:54:35;100406.25;;;3.11;46.26
58757;BME280;44527;47.460;19.016;2023-04-04T04:57:37;100398.22;;;3.18;45.51
58757;BME280;44527;47.460;19.016;2023-04-04T05:00:40;100402.38;;;3.22;46.30
58757;BME280;44527;47.460;19.016;2023-04-04T05:03:44;100404.84;;;3.51;44.96
58757;BME280;44527;47.460;19.016;2023-04-04T05:06:48;100400.50;;;3.51;44.41
58757;BME280;44527;47.460;19.016;2023-04-04T05:09:50;100394.00;;;3.63;43.88
58757;BME280;44527;47.460;19.016;2023-04-04T05:12:55;100395.53;;;3.68;43.67
58757;BME280;44527;47.460;19.016;2023-04-04T05:16:00;100396.37;;;3.69;43.78
58757;BME280;44527;47.460;19.016;2023-04-04T05:19:02;100389.78;;;3.84;43.19
58757;BME280;44527;47.460;19.016;2023-04-04T05:22:07;100401.62;;;3.91;44.03
58757;BME280;44527;47.460;19.016;2023-04-04T05:25:10;100386.63;;;4.21;43.94
58757;BME280;44527;47.460;19.016;2023-04-04T05:28:16;100394.50;;;4.62;42.54
58757;BME280;44527;47.460;19.016;2023-04-04T05:31:19;100398.41;;;4.94;42.94
58757;BME280;44527;47.460;19.016;2023-04-04T05:34:44;100401.78;;;5.37;41.32
58757;BME280;44527;47.460;19.016;2023-04-04T05:37:52;100413.91;;;5.96;39.68
58757;BME280;44527;47.460;19.016;2023-04-04T05:41:18;100414.31;;;6.44;39.58
58757;BME280;44527;47.460;19.016;2023-04-04T05:44:54;100411.59;;;7.17;37.21
58757;BME280;44527;47.460;19.016;2023-04-04T05:48:40;100426.66;;;8.11;35.58
58757;BME280;44527;47.460;19.016;2023-04-04T05:51:48;100417.13;;;8.26;35.01
58757;BME280;44527;47.460;19.016;2023-04-04T05:54:50;100417.59;;;8.80;33.96
58757;BME280;44527;47.460;19.016;2023-04-04T05:57:55;100424.53;;;9.26;32.15
58757;BME280;44527;47.460;19.016;2023-04-04T06:01:08;100429.63;;;9.57;32.32
58757;BME280;44527;47.460;19.016;2023-04-04T06:04:10;100428.31;;;9.93;31.21
58757;BME280;44527;47.460;19.016;2023-04-04T06:07:14;100426.81;;;10.99;30.06
58757;BME280;44527;47.460;19.016;2023-04-04T06:10:17;100432.75;;;11.66;28.01
58757;BME280;44527;47.460;19.016;2023-04-04T06:13:20;100431.81;;;11.42;29.02
58757;BME280;44527;47.460;19.016;2023-04-04T06:16:23;100417.00;;;10.75;29.72
58757;BME280;44527;47.460;19.016;2023-04-04T06:19:26;100426.31;;;11.19;29.29
58757;BME280;44527;47.460;19.016;2023-04-04T06:22:28;100419.50;;;12.54;28.02
58757;BME280;44527;47.460;19.016;2023-04-04T06:25:31;100436.09;;;13.27;26.89
58757;BME280;44527;47.460;19.016;2023-04-04T06:28:33;100425.47;;;13.04;26.76
58757;BME280;44527;47.460;19.016;2023-04-04T06:31:37;100419.19;;;12.94;26.57
58757;BME280;44527;47.460;19.016;2023-04-04T06:34:39;100404.97;;;13.43;26.43
58757;BME280;44527;47.460;19.016;2023-04-04T06:37:42;100390.63;;;13.70;27.12
58757;BME280;44527;47.460;19.016;2023-04-04T06:40:46;100396.69;;;13.25;26.24
58757;BME280;44527;47.460;19.016;2023-04-04T06:43:48;100396.37;;;11.60;28.70
58757;BME280;44527;47.460;19.016;2023-04-04T06:46:53;100393.44;;;11.52;28.36
58757;BME280;44527;47.460;19.016;2023-04-04T06:49:56;100383.72;;;10.49;29.80
58757;BME280;44527;47.460;19.016;2023-04-04T06:52:59;100384.72;;;9.35;31.88
58757;BME280;44527;47.460;19.016;2023-04-04T06:56:04;100377.22;;;9.29;32.55
58757;BME280;44527;47.460;19.016;2023-04-04T06:59:06;100384.84;;;9.03;32.69
58757;BME280;44527;47.460;19.016;2023-04-04T07:02:12;100384.81;;;8.59;33.69
58757;BME280;44527;47.460;19.016;2023-04-04T07:05:16;100380.34;;;8.61;34.31
58757;BME280;44527;47.460;19.016;2023-04-04T07:08:19;100384.97;;;8.56;34.31
58757;BME280;44527;47.460;19.016;2023-04-04T07:11:32;100392.75;;;8.57;33.85
58757;BME280;44527;47.460;19.016;2023-04-04T07:18:26;100409.59;;;7.72;36.82
58757;BME280;44527;47.460;19.016;2023-04-04T07:21:29;100403.88;;;6.44;37.77
58757;BME280;44527;47.460;19.016;2023-04-04T07:24:35;100407.84;;;6.34;38.48
58757;BME280;44527;47.460;19.016;2023-04-04T07:27:38;100415.88;;;6.29;37.40
58757;BME280;44527;47.460;19.016;2023-04-04T07:30:41;100405.84;;;6.75;37.83
58757;BME280;44527;47.460;19.016;2023-04-04T07:33:44;100403.00;;;6.80;36.82
58757;BME280;44527;47.460;19.016;2023-04-04T07:36:48;100406.00;;;6.89;36.25
58757;BME280;44527;47.460;19.016;2023-04-04T07:39:52;100399.78;;;7.09;35.84
58757;BME280;44527;47.460;19.016;2023-04-04T07:42:54;100405.91;;;8.08;36.25
58757;BME280;44527;47.460;19.016;2023-04-04T07:45:57;100412.47;;;9.23;34.04
58757;BME280;44527;47.460;19.016;2023-04-04T07:48:59;100406.00;;;8.84;34.19
58757;BME280;44527;47.460;19.016;2023-04-04T07:52:04;100399.41;;;8.93;33.34
58757;BME280;44527;47.460;19.016;2023-04-04T07:55:07;100413.00;;;8.06;33.89
58757;BME280;44527;47.460;19.016;2023-04-04T07:58:10;100413.16;;;7.87;34.18
58757;BME280;44527;47.460;19.016;2023-04-04T08:01:13;100421.66;;;7.91;34.26
58757;BME280;44527;47.460;19.016;2023-04-04T08:04:16;100419.94;;;7.74;36.07
58757;BME280;44527;47.460;19.016;2023-04-04T08:07:19;100424.31;;;7.73;36.79
58757;BME280;44527;47.460;19.016;2023-04-04T08:14:20;100406.91;;;7.06;37.09
58757;BME280;44527;47.460;19.016;2023-04-04T08:17:23;100405.09;;;7.08;36.17
58757;BME280;44527;47.460;19.016;2023-04-04T08:20:29;100409.44;;;7.58;35.92
58757;BME280;44527;47.460;19.016;2023-04-04T08:23:38;100419.22;;;7.54;35.06
58757;BME280;44527;47.460;19.016;2023-04-04T08:26:46;100427.03;;;7.72;35.92
58757;BME280;44527;47.460;19.016;2023-04-04T08:30:03;100413.06;;;7.55;37.02
58757;BME280;44527;47.460;19.016;2023-04-04T08:33:11;100410.37;;;7.24;36.10
58757;BME280;44527;47.460;19.016;2023-04-04T08:36:16;100422.41;;;7.26;36.07
58757;BME280;44527;47.460;19.016;2023-04-04T08:39:19;100425.28;;;7.04;36.20
58757;BME280;44527;47.460;19.016;2023-04-04T08:42:23;100423.09;;;7.30;35.42
58757;BME280;44527;47.460;19.016;2023-04-04T08:45:40;100412.25;;;7.37;35.82
58757;BME280;44527;47.460;19.016;2023-04-04T08:48:43;100405.59;;;7.65;37.38
58757;BME280;44527;47.460;19.016;2023-04-04T08:51:46;100406.16;;;8.03;35.45
58757;BME280;44527;47.460;19.016;2023-04-04T08:54:50;100401.59;;;8.07;34.31
58757;BME280;44527;47.460;19.016;2023-04-04T08:57:54;100400.59;;;7.94;35.15
58757;BME280;44527;47.460;19.016;2023-04-04T09:00:59;100390.91;;;7.96;34.91
58757;BME280;44527;47.460;19.016;2023-04-04T09:04:02;100393.47;;;7.80;35.33
58757;BME280;44527;47.460;19.016;2023-04-04T09:07:06;100393.34;;;7.99;35.53
58757;BME280;44527;47.460;19.016;2023-04-04T09:10:13;100386.59;;;8.11;35.50
58757;BME280;44527;47.460;19.016;2023-04-04T09:13:24;100400.16;;;8.01;34.23
58757;BME280;44527;47.460;19.016;2023-04-04T09:16:27;100393.47;;;7.80;35.45
58757;BME280;44527;47.460;19.016;2023-04-04T09:19:49;100380.84;;;7.88;34.94
58757;BME280;44527;47.460;19.016;2023-04-04T09:22:59;100388.03;;;7.51;35.85
58757;BME280;44527;47.460;19.016;2023-04-04T09:26:06;100392.75;;;7.78;36.68
58757;BME280;44527;47.460;19.016;2023-04-04T09:29:16;100388.34;;;7.94;34.45
58757;BME280;44527;47.460;19.016;2023-04-04T09:32:42;100393.75;;;8.23;34.11
58757;BME280;44527;47.460;19.016;2023-04-04T09:35:56;100390.72;;;8.46;33.26
58757;BME280;44527;47.460;19.016;2023-04-04T09:39:10;100388.38;;;8.42;34.29
58757;BME280;44527;47.460;19.016;2023-04-04T09:42:15;100380.28;;;8.46;34.15
58757;BME280;44527;47.460;19.016;2023-04-04T09:45:18;100380.25;;;8.31;34.79
58757;BME280;44527;47.460;19.016;2023-04-04T09:48:33;100369.56;;;8.51;34.50
58757;BME280;44527;47.460;19.016;2023-04-04T09:51:39;100363.47;;;8.19;34.29
58757;BME280;44527;47.460;19.016;2023-04-04T09:54:43;100366.34;;;8.46;34.18
58757;BME280;44527;47.460;19.016;2023-04-04T09:57:50;100378.75;;;8.26;35.10
58757;BME280;44527;47.460;19.016;2023-04-04T10:00:53;100371.56;;;8.30;33.76
58757;BME280;44527;47.460;19.016;2023-04-04T10:03:57;100381.59;;;8.38;33.85
58757;BME280;44527;47.460;19.016;2023-04-04T10:07:00;100390.41;;;8.83;34.07
58757;BME280;44527;47.460;19.016;2023-04-04T10:10:04;100375.22;;;8.73;32.88
58757;BME280;44527;47.460;19.016;2023-04-04T10:13:06;100373.81;;;8.68;33.89
58757;BME280;44527;47.460;19.016;2023-04-04T10:16:12;100384.06;;;8.41;34.98
58757;BME280;44527;47.460;19.016;2023-04-04T10:19:14;100378.09;;;8.85;32.72
58757;BME280;44527;47.460;19.016;2023-04-04T10:22:19;100362.81;;;8.77;33.74
58757;BME280;44527;47.460;19.016;2023-04-04T10:25:23;100366.34;;;9.06;33.40
58757;BME280;44527;47.460;19.016;2023-04-04T10:28:26;100366.28;;;9.22;32.60
58757;BME280;44527;47.460;19.016;2023-04-04T10:31:28;100350.81;;;9.03;32.01
58757;BME280;44527;47.460;19.016;2023-04-04T10:34:41;100356.91;;;9.61;32.08
58757;BME280;44527;47.460;19.016;2023-04-04T10:37:50;100345.66;;;9.73;31.47
58757;BME280;44527;47.460;19.016;2023-04-04T10:40:57;100344.56;;;9.49;31.76
58757;BME280;44527;47.460;19.016;2023-04-04T10:44:04;100341.75;;;9.52;32.00
58757;BME280;44527;47.460;19.016;2023-04-04T10:50:15;100358.97;;;9.56;31.60
58757;BME280;44527;47.460;19.016;2023-04-04T10:53:17;100348.84;;;9.64;30.64
58757;BME280;44527;47.460;19.016;2023-04-04T10:56:20;100349.56;;;9.95;32.18
58757;BME280;44527;47.460;19.016;2023-04-04T10:59:23;100344.19;;;9.69;30.99
58757;BME280;44527;47.460;19.016;2023-04-04T11:02:44;100348.38;;;9.72;31.07
58757;BME280;44527;47.460;19.016;2023-04-04T11:05:55;100340.38;;;8.87;33.78
58757;BME280;44527;47.460;19.016;2023-04-04T11:09:02;100345.97;;;9.26;34.64
58757;BME280;44527;47.460;19.016;2023-04-04T11:12:08;100333.88;;;9.80;33.83
58757;BME280;44527;47.460;19.016;2023-04-04T11:15:13;100324.44;;;10.05;31.11
58757;BME280;44527;47.460;19.016;2023-04-04T11:18:16;100327.84;;;9.93;34.43
58757;BME280;44527;47.460;19.016;2023-04-04T11:21:34;100321.03;;;10.17;33.15
58757;BME280;44527;47.460;19.016;2023-04-04T11:24:42;100325.44;;;9.89;31.01
58757;BME280;44527;47.460;19.016;2023-04-04T11:27:45;100332.47;;;9.75;31.52
58757;BME280;44527;47.460;19.016;2023-04-04T11:30:47;100321.03;;;9.76;32.36
58757;BME280;44527;47.460;19.016;2023-04-04T11:34:14;100321.91;;;9.48;32.00
58757;BME280;44527;47.460;19.016;2023-04-04T11:37:17;100315.34;;;9.55;33.29
58757;BME280;44527;47.460;19.016;2023-04-04T11:40:19;100318.47;;;9.88;32.08
58757;BME280;44527;47.460;19.016;2023-04-04T11:43:24;100316.62;;;9.90;31.25
58757;BME280;44527;47.460;19.016;2023-04-04T11:46:27;100298.16;;;9.51;32.14
58757;BME280;44527;47.460;19.016;2023-04-04T11:49:34;100298.91;;;9.24;33.59
58757;BME280;44527;47.460;19.016;2023-04-04T11:52:37;100303.50;;;9.35;31.64
58757;BME280;44527;47.460;19.016;2023-04-04T11:55:42;100292.06;;;9.64;32.47
58757;BME280;44527;47.460;19.016;2023-04-04T11:58:50;100292.38;;;9.87;31.25
58757;BME280;44527;47.460;19.016;2023-04-04T12:02:02;100286.81;;;10.19;32.34
58757;BME280;44527;47.460;19.016;2023-04-04T12:05:05;100287.81;;;10.03;33.22
58757;BME280;44527;47.460;19.016;2023-04-04T12:08:09;100290.44;;;10.03;31.48
58757;BME280;44527;47.460;19.016;2023-04-04T12:11:14;100279.69;;;9.66;31.34
58757;BME280;44527;47.460;19.016;2023-04-04T12:14:20;100275.53;;;10.04;31.81
58757;BME280;44527;47.460;19.016;2023-04-04T12:17:23;100271.53;;;10.25;30.79
58757;BME280;44527;47.460;19.016;2023-04-04T12:20:29;100267.91;;;10.41;32.53
58757;BME280;44527;47.460;19.016;2023-04-04T12:23:35;100265.25;;;10.01;33.04
58757;BME280;44527;47.460;19.016;2023-04-04T12:26:41;100256.75;;;9.97;31.99
58757;BME280;44527;47.460;19.016;2023-04-04T12:29:43;100260.28;;;10.50;33.48
58757;BME280;44527;47.460;19.016;2023-04-04T12:32:48;100263.22;;;10.46;30.83
58757;BME280;44527;47.460;19.016;2023-04-04T12:35:51;100249.88;;;10.49;33.01
58757;BME280;44527;47.460;19.016;2023-04-04T12:38:54;100247.47;;;10.46;30.69
58757;BME280;44527;47.460;19.016;2023-04-04T12:41:59;100252.62;;;10.60;33.85
58757;BME280;44527;47.460;19.016;2023-04-04T12:45:03;100245.38;;;10.76;32.95
58757;BME280;44527;47.460;19.016;2023-04-04T12:48:10;100247.28;;;10.87;33.78
58757;BME280;44527;47.460;19.016;2023-04-04T12:51:13;100250.22;;;10.82;33.45
58757;BME280;44527;47.460;19.016;2023-04-04T12:54:26;100246.12;;;10.78;31.63
58757;BME280;44527;47.460;19.016;2023-04-04T12:57:29;100237.94;;;10.57;33.55
58757;BME280;44527;47.460;19.016;2023-04-04T13:00:32;100242.44;;;10.55;30.72
58757;BME280;44527;47.460;19.016;2023-04-04T13:03:34;100238.06;;;10.81;31.42
58757;BME280;44527;47.460;19.016;2023-04-04T13:06:39;100244.75;;;10.47;32.02
58757;BME280;44527;47.460;19.016;2023-04-04T13:09:49;100242.44;;;10.55;30.69
58757;BME280;44527;47.460;19.016;2023-04-04T13:13:00;100238.38;;;10.24;32.27
58757;BME280;44527;47.460;19.016;2023-04-04T13:16:03;100236.69;;;10.23;31.26
58757;BME280;44527;47.460;19.016;2023-04-04T13:19:07;100228.19;;;10.47;30.87
58757;BME280;44527;47.460;19.016;2023-04-04T13:22:09;100217.28;;;10.66;29.27
58757;BME280;44527;47.460;19.016;2023-04-04T13:25:12;100227.44;;;10.57;31.66
58757;BME280;44527;47.460;19.016;2023-04-04T13:28:14;100226.66;;;10.30;32.51
58757;BME280;44527;47.460;19.016;2023-04-04T13:31:17;100224.38;;;10.51;31.36
58757;BME280;44527;47.460;19.016;2023-04-04T13:34:22;100218.62;;;10.71;30.15
58757;BME280;44527;47.460;19.016;2023-04-04T13:37:25;100221.25;;;10.84;30.34
58757;BME280;44527;47.460;19.016;2023-04-04T13:40:28;100215.16;;;10.96;30.43
58757;BME280;44527;47.460;19.016;2023-04-04T13:43:31;100212.63;;;10.95;30.33
58757;BME280;44527;47.460;19.016;2023-04-04T13:46:33;100224.06;;;10.94;31.55
58757;BME280;44527;47.460;19.016;2023-04-04T13:49:37;100216.59;;;10.49;30.27
58757;BME280;44527;47.460;19.016;2023-04-04T13:52:39;100211.34;;;10.37;30.56
58757;BME280;44527;47.460;19.016;2023-04-04T13:55:42;100214.72;;;9.99;32.15
58757;BME280;44527;47.460;19.016;2023-04-04T13:59:04;100207.97;;;10.34;32.35
58757;BME280;44527;47.460;19.016;2023-04-04T14:02:07;100210.94;;;10.43;30.03
58757;BME280;44527;47.460;19.016;2023-04-04T14:05:10;100219.69;;;10.81;30.39
58757;BME280;44527;47.460;19.016;2023-04-04T14:08:12;100217.78;;;10.58;31.02
58757;BME280;44527;47.460;19.016;2023-04-04T14:11:16;100204.22;;;10.39;29.48
58757;BME280;44527;47.460;19.016;2023-04-04T14:14:18;100211.88;;;10.29;31.32
58757;BME280;44527;47.460;19.016;2023-04-04T14:17:21;100218.25;;;9.98;30.20
58757;BME280;44527;47.460;19.016;2023-04-04T14:20:23;100203.31;;;10.12;30.61
58757;BME280;44527;47.460;19.016;2023-04-04T14:23:25;100215.84;;;10.34;30.63
58757;BME280;44527;47.460;19.016;2023-04-04T14:26:28;100208.97;;;10.19;30.59
58757;BME280;44527;47.460;19.016;2023-04-04T14:29:30;100213.81;;;10.25;29.89
58757;BME280;44527;47.460;19.016;2023-04-04T14:32:32;100216.84;;;10.59;32.51
58757;BME280;44527;47.460;19.016;2023-04-04T14:35:36;100226.28;;;10.49;30.34
58757;BME280;44527;47.460;19.016;2023-04-04T14:38:39;100213.37;;;10.19;29.77
58757;BME280;44527;47.460;19.016;2023-04-04T14:41:41;100220.06;;;10.10;30.64
58757;BME280;44527;47.460;19.016;2023-04-04T14:44:43;100222.88;;;9.94;31.89
58757;BME280;44527;47.460;19.016;2023-04-04T14:47:46;100220.66;;;9.88;32.53
58757;BME280;44527;47.460;19.016;2023-04-04T14:50:48;100220.84;;;9.85;31.52
58757;BME280;44527;47.460;19.016;2023-04-04T14:53:51;100222.78;;;9.96;33.15
58757;BME280;44527;47.460;19.016;2023-04-04T14:56:53;100217.59;;;9.81;31.20
58757;BME280;44527;47.460;19.016;2023-04-04T14:59:56;100223.25;;;9.61;30.83
58757;BME280;44527;47.460;19.016;2023-04-04T15:02:58;100213.97;;;9.70;34.10
58757;BME280;44527;47.460;19.016;2023-04-04T15:06:01;100222.94;;;9.53;31.73
58757;BME280;44527;47.460;19.016;2023-04-04T15:09:03;100219.00;;;9.46;32.48
58757;BME280;44527;47.460;19.016;2023-04-04T15:12:07;100222.16;;;9.65;31.87
58757;BME280;44527;47.460;19.016;2023-04-04T15:15:09;100219.56;;;9.78;32.07
58757;BME280;44527;47.460;19.016;2023-04-04T15:18:12;100221.19;;;9.66;32.85
58757;BME280;44527;47.460;19.016;2023-04-04T15:21:14;100218.94;;;9.74;32.43
58757;BME280;44527;47.460;19.016;2023-04-04T15:24:17;100224.38;;;9.71;30.68
58757;BME280;44527;47.460;19.016;2023-04-04T15:27:19;100217.91;;;9.77;32.88
58757;BME280;44527;47.460;19.016;2023-04-04T15:30:22;100230.19;;;9.62;32.18
58757;BME280;44527;47.460;19.016;2023-04-04T15:33:24;100226.53;;;9.23;32.77
58757;BME280;44527;47.460;19.016;2023-04-04T15:36:27;100226.91;;;9.17;31.67
58757;BME280;44527;47.460;19.016;2023-04-04T15:39:30;100229.34;;;9.20;33.80
58757;BME280;44527;47.460;19.016;2023-04-04T15:42:41;100236.34;;;9.19;33.74
58757;BME280;44527;47.460;19.016;2023-04-04T15:45:43;100240.37;;;9.25;33.56
58757;BME280;44527;47.460;19.016;2023-04-04T15:48:48;100236.16;;;9.08;33.69
58757;BME280;44527;47.460;19.016;2023-04-04T15:51:52;100238.97;;;9.19;33.93
58757;BME280;44527;47.460;19.016;2023-04-04T15:54:55;100240.13;;;9.15;33.48
58757;BME280;44527;47.460;19.016;2023-04-04T15:57:57;100248.03;;;9.00;33.08
58757;BME280;44527;47.460;19.016;2023-04-04T16:00:59;100249.25;;;9.08;33.57
58757;BME280;44527;47.460;19.016;2023-04-04T16:04:02;100252.62;;;8.96;34.36
58757;BME280;44527;47.460;19.016;2023-04-04T16:07:04;100248.72;;;8.89;34.81
58757;BME280;44527;47.460;19.016;2023-04-04T16:10:07;100252.50;;;8.69;34.63
58757;BME280;44527;47.460;19.016;2023-04-04T16:13:09;100262.56;;;8.46;33.80
58757;BME280;44527;47.460;19.016;2023-04-04T16:16:12;100263.31;;;8.48;34.71
58757;BME280;44527;47.460;19.016;2023-04-04T16:19:14;100270.91;;;8.37;35.96
58757;BME280;44527;47.460;19.016;2023-04-04T16:22:18;100276.44;;;8.33;35.48